Time;durP1;ratioP1;P1;durP2;ratioP2;P2;SDS_P1;SDS_P2;PMS_P1;PMS_P2;Temp;Humidity;BMP_temperature;BMP_pressure;BME280_temperature;BME280_humidity;BME280_pressure;Samples;Min_cycle;Max_cycle;Signal;HPM_P1;HPM_P2
2021/08/06 00:01:26;;;;;;;3.78;3.48;;;;;;;15.49;79.13;98566.69;257073;1104;115369;-66
2021/08/06 00:06:33;;;;;;;4.03;3.43;;;;;;;15.51;79.32;98561.83;257122;1104;114907;-67
2021/08/06 00:11:38;;;;;;;8.80;4.73;;;;;;;15.55;79.76;98556.66;257020;1104;114865;-66
2021/08/06 00:16:41;;;;;;;4.40;4.00;;;;;;;15.58;79.14;98561.48;257193;1104;115053;-66
2021/08/06 00:21:45;;;;;;;4.43;4.13;;;;;;;15.57;79.17;98557.99;257258;1104;115375;-66
2021/08/06 00:26:49;;;;;;;4.60;3.57;;;;;;;15.56;79.17;98553.71;257068;1104;114892;-67
2021/08/06 00:31:52;;;;;;;4.50;4.10;;;;;;;15.54;79.28;98537.06;257147;1104;114771;-67
2021/08/06 00:36:55;;;;;;;3.93;3.53;;;;;;;15.51;79.26;98543.02;256005;1104;115492;-67
2021/08/06 00:41:58;;;;;;;6.15;3.80;;;;;;;15.50;79.40;98533.38;256308;1104;114736;-67
2021/08/06 00:47:01;;;;;;;6.65;3.08;;;;;;;15.47;79.81;98531.28;255241;1104;114863;-66
2021/08/06 00:52:04;;;;;;;4.53;4.00;;;;;;;15.47;79.34;98529.39;257102;1104;115236;-66
2021/08/06 00:57:12;;;;;;;4.05;3.65;;;;;;;15.45;79.64;98522.72;254829;1104;137305;-66
2021/08/06 01:02:30;;;;;;;3.45;3.15;;;;;;;15.45;79.31;98514.66;254998;1104;115095;-66
2021/08/06 01:07:41;;;;;;;3.60;3.30;;;;;;;15.41;79.88;98514.45;254268;1104;114925;-67
2021/08/06 01:12:48;;;;;;;4.03;3.73;;;;;;;15.38;79.83;98503.50;255333;1104;115177;-67
2021/08/06 01:17:55;;;;;;;3.03;2.83;;;;;;;15.36;79.61;98503.80;254275;1104;115283;-67
2021/08/06 01:22:58;;;;;;;;;;;;;;;15.32;79.92;98492.05;255269;1104;114843;-66
2021/08/06 01:28:02;;;;;;;3.23;3.03;;;;;;;15.31;80.08;98486.97;256509;1104;106381;-67
2021/08/06 01:33:05;;;;;;;4.60;2.97;;;;;;;15.28;79.97;98491.08;256297;1104;115003;-66
2021/08/06 01:38:10;;;;;;;4.00;3.70;;;;;;;15.21;80.16;98481.80;254717;1104;114914;-67
2021/08/06 01:43:41;;;;;;;6.60;3.25;;;;;;;15.19;80.39;98481.30;254462;1104;115061;-66
2021/08/06 01:48:51;;;;;;;3.53;3.23;;;;;;;15.18;80.46;98474.34;256690;1104;115050;-66
2021/08/06 01:53:56;;;;;;;3.33;3.03;;;;;;;15.16;80.15;98470.06;253862;1104;115644;-66
2021/08/06 01:59:01;;;;;;;3.10;2.50;;;;;;;15.18;80.34;98460.92;255342;1104;114934;-67
2021/08/06 02:04:05;;;;;;;5.00;3.43;;;;;;;15.16;80.16;98456.64;256682;1100;114937;-67
2021/08/06 02:09:18;;;;;;;3.17;2.70;;;;;;;15.15;80.46;98454.25;255518;1099;114930;-66
2021/08/06 02:14:22;;;;;;;3.37;2.80;;;;;;;15.13;80.47;98451.86;257300;1104;114756;-65
2021/08/06 02:19:26;;;;;;;3.73;3.13;;;;;;;15.15;80.34;98443.52;257158;1104;115494;-66
2021/08/06 02:24:32;;;;;;;2.70;2.50;;;;;;;15.15;80.39;98443.52;257231;1104;114509;-66
2021/08/06 02:29:38;;;;;;;2.70;2.50;;;;;;;15.16;80.70;98437.84;257120;1103;115170;-66
2021/08/06 02:34:41;;;;;;;2.77;2.57;;;;;;;15.14;80.43;98441.92;257099;1104;115148;-67
2021/08/06 02:39:43;;;;;;;3.48;2.73;;;;;;;15.11;80.49;98435.25;257364;1104;114657;-66
2021/08/06 02:44:46;;;;;;;2.57;2.37;;;;;;;15.10;80.79;98430.97;257323;1104;115069;-66
2021/08/06 02:49:48;;;;;;;2.35;2.15;;;;;;;15.11;80.57;98418.35;257061;1104;114999;-65
2021/08/06 02:54:51;;;;;;;2.00;1.85;;;;;;;15.10;81.56;98435.55;255247;1104;115256;-65
2021/08/06 02:59:54;;;;;;;2.23;2.03;;;;;;;15.13;81.02;98424.22;255007;1104;114518;-66
2021/08/06 03:04:57;;;;;;;1.35;1.35;;;;;;;15.10;80.94;98414.08;255234;1104;114792;-67
2021/08/06 03:09:59;;;;;;;4.25;1.60;;;;;;;15.01;80.58;98411.27;255770;1104;115890;-66
2021/08/06 03:15:01;;;;;;;1.70;1.60;;;;;;;14.99;81.21;98412.66;254070;1104;115036;-65
2021/08/06 03:20:05;;;;;;;2.63;1.60;;;;;;;14.96;80.96;98408.70;255479;1104;115531;-66
2021/08/06 03:25:09;;;;;;;1.60;1.50;;;;;;;14.93;80.82;98416.54;253908;1104;114696;-65
2021/08/06 03:30:14;;;;;;;2.13;2.03;;;;;;;14.92;81.27;98413.06;256181;1104;114780;-64
2021/08/06 03:35:18;;;;;;;1.93;1.83;;;;;;;14.88;81.35;98416.63;255141;1104;115240;-64
2021/08/06 03:40:22;;;;;;;1.88;1.78;;;;;;;14.87;81.04;98406.98;256033;1100;114868;-66
2021/08/06 03:45:25;;;;;;;2.60;1.55;;;;;;;14.86;81.54;98403.50;255747;1103;115093;-66
2021/08/06 03:50:29;;;;;;;1.73;1.63;;;;;;;14.83;80.86;98401.41;254053;1104;115136;-64
2021/08/06 03:55:32;;;;;;;1.88;1.58;;;;;;;14.77;81.63;98391.84;254740;1100;115823;-66
2021/08/06 04:00:39;;;;;;;1.63;1.58;;;;;;;14.77;81.08;98391.84;253863;1104;115994;-63
2021/08/06 04:05:45;;;;;;;2.70;1.98;;;;;;;14.76;81.55;98390.25;254845;1100;116573;-65
2021/08/06 04:10:49;;;;;;;2.40;2.23;;;;;;;14.76;81.51;98384.89;253813;1104;115386;-68
2021/08/06 04:15:53;;;;;;;1.23;1.23;;;;;;;14.72;81.24;98381.99;253729;1104;116048;-65
2021/08/06 04:20:57;;;;;;;5.80;2.15;;;;;;;14.72;81.56;98381.99;257242;1104;116100;-64
2021/08/06 04:26:02;;;;;;;2.65;2.00;;;;;;;14.72;81.44;98379.31;257079;1104;115451;-65
2021/08/06 04:31:05;;;;;;;5.48;2.55;;;;;;;14.69;81.13;98376.42;257252;1104;115806;-65
2021/08/06 04:36:09;;;;;;;2.28;2.18;;;;;;;14.71;81.41;98382.29;257282;1104;114785;-64
2021/08/06 04:41:12;;;;;;;2.15;2.05;;;;;;;14.68;81.20;98380.98;257358;1099;115099;-66
2021/08/06 04:46:15;;;;;;;2.30;2.13;;;;;;;14.68;81.30;98391.72;257377;1104;115497;-66
2021/08/06 04:51:18;;;;;;;1.70;1.60;;;;;;;14.69;81.45;98395.99;255551;1104;115414;-66
2021/08/06 04:56:22;;;;;;;2.48;1.90;;;;;;;14.70;81.46;98384.17;254774;1104;115804;-65
2021/08/06 05:01:31;;;;;;;1.85;1.75;;;;;;;14.68;81.36;98389.03;257202;1104;117643;-65
2021/08/06 05:06:34;;;;;;;2.05;1.90;;;;;;;14.67;81.41;98395.52;254535;1104;115442;-66
2021/08/06 05:11:38;;;;;;;2.18;2.00;;;;;;;14.69;81.83;98395.99;255668;1104;115944;-67
2021/08/06 05:16:41;;;;;;;2.68;2.48;;;;;;;14.72;81.46;98386.56;255738;1104;115659;-66
2021/08/06 05:21:45;;;;;;;2.80;2.20;;;;;;;14.72;81.67;98386.56;254275;1104;115497;-65
2021/08/06 05:26:48;;;;;;;1.65;1.30;;;;;;;14.74;81.85;98400.48;255991;1104;115353;-65
2021/08/06 05:31:52;;;;;;;2.23;2.05;;;;;;;14.75;81.68;98391.34;254649;1104;115147;-65
2021/08/06 05:36:55;;;;;;;2.13;1.93;;;;;;;14.76;81.73;98391.05;254605;1104;114396;-66
2021/08/06 05:41:59;;;;;;;2.20;2.05;;;;;;;14.75;81.61;98391.34;254009;1104;114697;-66
2021/08/06 05:47:03;;;;;;;1.95;1.85;;;;;;;14.77;81.54;98399.89;255126;1104;115024;-65
2021/08/06 05:52:07;;;;;;;2.90;2.05;;;;;;;14.76;81.52;98399.09;254164;1104;114375;-65
2021/08/06 05:57:11;;;;;;;2.03;1.93;;;;;;;14.73;81.57;98399.68;254661;1104;115094;-65
2021/08/06 06:02:14;;;;;;;2.33;2.13;;;;;;;14.71;81.53;98401.06;254212;1104;115155;-65
2021/08/06 06:07:18;;;;;;;2.63;2.48;;;;;;;14.72;81.58;98397.29;253921;1104;115302;-66
2021/08/06 06:12:22;;;;;;;4.48;2.85;;;;;;;14.74;81.59;98412.00;256365;1104;115804;-65
2021/08/06 06:17:26;;;;;;;2.80;2.60;;;;;;;14.76;81.48;98406.34;254538;1104;114630;-66
2021/08/06 06:22:30;;;;;;;2.98;2.75;;;;;;;14.76;81.60;98411.71;257274;1104;116583;-64
2021/08/06 06:27:33;;;;;;;2.57;2.37;;;;;;;14.81;81.49;98417.00;257266;1104;116087;-65
2021/08/06 06:32:36;;;;;;;3.17;2.50;;;;;;;14.85;81.10;98419.89;257365;1104;116512;-66
2021/08/06 06:37:40;;;;;;;5.97;2.47;;;;;;;14.90;81.05;98411.76;257364;1104;115685;-65
2021/08/06 06:42:45;;;;;;;3.00;2.58;;;;;;;14.94;81.25;98421.61;257107;1104;115396;-65
2021/08/06 06:47:51;;;;;;;1.78;1.68;;;;;;;14.98;81.33;98422.59;256774;1104;114791;-64
2021/08/06 06:52:55;;;;;;;2.68;2.28;;;;;;;15.02;81.27;98428.96;255943;1104;116580;-65
2021/08/06 06:58:04;;;;;;;2.23;2.03;;;;;;;15.07;81.25;98428.88;256062;1104;115459;-65
2021/08/06 07:03:07;;;;;;;4.25;2.73;;;;;;;15.13;81.00;98427.70;254146;1104;116301;-64
2021/08/06 07:08:10;;;;;;;2.97;2.50;;;;;;;15.18;81.44;98434.08;254404;1100;115330;-66
2021/08/06 07:13:13;;;;;;;2.00;1.90;;;;;;;15.21;80.88;98436.97;253816;1099;116149;-66
2021/08/06 07:18:16;;;;;;;3.50;2.00;;;;;;;15.21;81.18;98433.48;255028;1104;115348;-63
2021/08/06 07:23:18;;;;;;;1.98;1.88;;;;;;;15.20;81.19;98440.74;254137;1104;115576;-65
2021/08/06 07:28:21;;;;;;;3.50;2.40;;;;;;;15.20;80.82;98451.48;256115;1104;117553;-64
2021/08/06 07:33:24;;;;;;;2.33;1.80;;;;;;;15.24;80.97;98446.31;256855;1104;116011;-65
2021/08/06 07:38:27;;;;;;;3.60;2.07;;;;;;;15.29;80.61;98448.88;254084;1104;205405;-66
2021/08/06 07:43:30;;;;;;;2.40;2.20;;;;;;;15.35;80.80;98456.55;253718;1104;115648;-64
2021/08/06 07:48:32;;;;;;;12.03;3.25;;;;;;;15.39;80.91;98459.45;253680;1100;115298;-66
2021/08/06 07:53:35;;;;;;;2.50;2.30;;;;;;;15.38;80.96;98458.65;255682;1099;115596;-66
2021/08/06 07:58:38;;;;;;;2.48;2.18;;;;;;;15.40;80.54;98472.58;254764;1104;117352;-66
2021/08/06 08:03:42;;;;;;;3.40;1.80;;;;;;;15.38;80.25;98473.96;256640;1104;115150;-65
2021/08/06 08:08:45;;;;;;;2.15;1.90;;;;;;;15.37;80.60;98472.38;256087;1104;115145;-66
2021/08/06 08:13:48;;;;;;;7.80;4.13;;;;;;;15.36;80.61;98478.83;256320;1104;115006;-67
2021/08/06 08:18:52;;;;;;;3.43;2.05;;;;;;;15.40;80.15;98474.47;256630;1104;115084;-66
2021/08/06 08:24:02;;;;;;;1.98;1.85;;;;;;;15.51;80.22;98467.83;254036;1104;115538;-66
2021/08/06 08:29:05;;;;;;;3.58;1.98;;;;;;;15.53;79.93;98480.95;256702;1104;115547;-66
2021/08/06 08:34:09;;;;;;;2.60;2.23;;;;;;;15.59;79.89;98488.66;257227;1104;116880;-65
2021/08/06 08:39:12;;;;;;;2.17;2.03;;;;;;;15.74;79.35;98471.44;257238;1104;114511;-66
2021/08/06 08:44:15;;;;;;;2.00;1.60;;;;;;;15.91;79.84;98478.88;257351;1104;115819;-65
2021/08/06 08:49:24;;;;;;;4.48;2.65;;;;;;;15.96;79.63;98487.64;257146;1104;115553;-66
2021/08/06 08:54:27;;;;;;;4.03;1.60;;;;;;;16.07;79.45;98494.41;257079;1104;116041;-67
2021/08/06 08:59:31;;;;;;;1.97;1.87;;;;;;;16.09;79.11;98502.17;257221;1104;115165;-66
2021/08/06 09:04:34;;;;;;;1.73;1.60;;;;;;;16.05;78.83;98503.86;256157;1104;115158;-66
2021/08/06 09:09:40;;;;;;;3.00;1.68;;;;;;;16.02;78.80;98501.77;253770;1104;115439;-65
2021/08/06 09:14:46;;;;;;;1.70;1.60;;;;;;;15.99;78.81;98502.37;256326;1100;115253;-67
2021/08/06 09:19:58;;;;;;;1.24;1.14;;;;;;;15.95;78.64;98512.13;254603;1104;116292;-67
2021/08/06 09:25:18;;;;;;;2.03;1.85;;;;;;;15.98;78.58;98504.27;257165;1104;115640;-66
2021/08/06 09:30:24;;;;;;;1.83;1.73;;;;;;;16.01;78.58;98514.41;256314;1104;114728;-67
2021/08/06 09:35:32;;;;;;;2.90;1.88;;;;;;;16.08;78.64;98514.02;255864;1104;114341;-66
2021/08/06 09:40:39;;;;;;;1.53;1.43;;;;;;;16.02;78.32;98520.59;255460;1104;115041;-66
2021/08/06 09:45:44;;;;;;;1.05;1.05;;;;;;;15.99;78.47;98521.19;253945;1104;115403;-65
2021/08/06 09:50:48;;;;;;;1.50;1.40;;;;;;;15.90;78.26;98531.06;255267;1099;115845;-66
2021/08/06 09:55:52;;;;;;;1.23;1.23;;;;;;;15.75;78.19;98532.13;254645;1104;115236;-65
2021/08/06 10:00:55;;;;;;;1.55;1.50;;;;;;;15.67;78.00;98530.13;256233;1104;115558;-65
2021/08/06 10:06:08;;;;;;;1.20;1.00;;;;;;;15.63;78.02;98534.50;254654;1104;114898;-65
2021/08/06 10:11:14;;;;;;;1.80;1.13;;;;;;;15.66;78.04;98539.28;254092;1104;114708;-65
2021/08/06 10:16:19;;;;;;;2.30;1.40;;;;;;;15.66;78.07;98545.45;254134;1104;115623;-66
2021/08/06 10:21:22;;;;;;;1.50;1.40;;;;;;;15.71;78.61;98544.56;256365;1103;114987;-66
2021/08/06 10:26:27;;;;;;;2.58;1.60;;;;;;;15.72;78.29;98544.27;255021;1104;115575;-67
2021/08/06 10:31:31;;;;;;;2.65;1.23;;;;;;;15.75;78.20;98549.05;256387;1104;136526;-65
2021/08/06 10:36:45;;;;;;;0.80;0.80;;;;;;;15.70;78.02;98554.52;254970;1104;116513;-65
2021/08/06 10:41:50;;;;;;;1.28;1.18;;;;;;;15.74;78.16;98552.03;257251;1104;115763;-66
2021/08/06 10:46:58;;;;;;;2.03;1.70;;;;;;;15.76;78.33;98557.91;257262;1104;116663;-66
2021/08/06 10:52:11;;;;;;;1.20;1.20;;;;;;;15.73;77.86;98561.19;257129;1104;115343;-66
2021/08/06 10:57:38;;;;;;;2.03;1.75;;;;;;;15.67;78.44;98567.73;257187;1103;137312;-66
2021/08/06 11:02:44;;;;;;;1.50;1.40;;;;;;;15.56;78.01;98567.14;257023;1104;115972;-66
2021/08/06 11:07:48;;;;;;;1.33;1.33;;;;;;;15.57;78.28;98584.05;257133;1104;115022;-66
2021/08/06 11:12:53;;;;;;;3.23;1.87;;;;;;;15.59;77.74;98584.56;255548;1104;115402;-67
2021/08/06 11:18:01;;;;;;;1.70;1.55;;;;;;;15.59;78.32;98574.61;255547;1104;115907;-68
2021/08/06 11:23:15;;;;;;;1.78;1.68;;;;;;;15.65;78.07;98580.67;256284;1103;115025;-67
2021/08/06 11:28:26;;;;;;;1.25;1.25;;;;;;;15.64;78.07;98582.56;254230;1104;114671;-66
2021/08/06 11:33:32;;;;;;;1.78;1.63;;;;;;;15.59;77.88;98588.05;255673;1104;115580;-66
2021/08/06 11:38:35;;;;;;;1.30;1.05;;;;;;;15.53;78.04;98589.19;253912;1104;115015;-66
2021/08/06 11:43:38;;;;;;;0.83;0.83;;;;;;;15.36;78.11;98599.66;255231;1104;114978;-66
2021/08/06 11:48:57;;;;;;;3.00;1.35;;;;;;;15.31;77.83;98599.73;254645;1104;115736;-65
2021/08/06 11:54:09;;;;;;;1.05;1.00;;;;;;;15.24;78.11;98604.70;254243;1104;115682;-65
2021/08/06 11:59:13;;;;;;;0.88;0.88;;;;;;;15.09;77.83;98603.04;255843;1104;115578;-67
2021/08/06 12:04:26;;;;;;;0.98;0.98;;;;;;;15.04;78.32;98611.96;254083;1104;115670;-66
2021/08/06 12:09:30;;;;;;;2.70;1.30;;;;;;;15.06;78.05;98617.84;254886;1103;115740;-65
2021/08/06 12:14:34;;;;;;;1.28;1.18;;;;;;;15.14;78.08;98619.88;255742;1103;114391;-65
2021/08/06 12:19:47;;;;;;;1.33;1.20;;;;;;;15.22;78.19;98620.30;255672;1104;114863;-65
2021/08/06 12:24:54;;;;;;;1.83;1.15;;;;;;;15.19;78.02;98613.63;255801;1104;115453;-66
2021/08/06 12:30:18;;;;;;;2.00;1.05;;;;;;;15.13;78.03;98629.01;253918;1104;114958;-66
2021/08/06 12:35:24;;;;;;;0.90;0.90;;;;;;;15.07;78.31;98627.48;254437;1100;115668;-65
2021/08/06 12:40:43;;;;;;;1.33;1.23;;;;;;;15.14;78.52;98629.81;255142;1104;116111;-67
2021/08/06 12:45:46;;;;;;;1.40;1.30;;;;;;;15.11;78.62;98630.39;253925;1104;116152;-64
2021/08/06 12:50:50;;;;;;;2.63;1.08;;;;;;;15.08;78.47;98636.34;257087;1104;116878;-66
2021/08/06 12:56:05;;;;;;;1.90;1.30;;;;;;;15.12;78.82;98635.47;257087;1104;115686;-66
2021/08/06 13:01:10;;;;;;;2.40;1.33;;;;;;;15.22;78.73;98639.89;257099;1104;115695;-65
2021/08/06 13:06:16;;;;;;;1.23;1.07;;;;;;;15.34;78.49;98645.60;257077;1104;115592;-66
2021/08/06 13:11:24;;;;;;;3.63;1.83;;;;;;;15.44;78.47;98650.02;257305;1104;114662;-65
2021/08/06 13:16:27;;;;;;;14.27;2.83;;;;;;;15.45;78.34;98646.25;257334;1104;115192;-65
2021/08/06 13:21:30;;;;;;;1.68;1.58;;;;;;;15.46;78.45;98653.22;256551;1100;114875;-66
2021/08/06 13:26:35;;;;;;;2.15;1.30;;;;;;;15.45;78.38;98654.30;254836;1100;115841;-65
2021/08/06 13:31:40;;;;;;;2.93;1.00;;;;;;;15.35;78.06;98649.08;253999;1104;116941;-66
2021/08/06 13:36:44;;;;;;;1.28;1.08;;;;;;;15.25;77.80;98660.00;255701;1104;117065;-65
2021/08/06 13:41:49;;;;;;;1.53;1.10;;;;;;;15.19;78.46;98658.47;257230;1104;116725;-67
2021/08/06 13:46:53;;;;;;;1.80;1.50;;;;;;;15.18;78.62;98657.67;254452;1100;115923;-67
2021/08/06 13:51:56;;;;;;;2.25;1.65;;;;;;;15.16;78.22;98663.33;254660;1104;116199;-65
2021/08/06 13:56:59;;;;;;;3.85;1.55;;;;;;;15.05;78.08;98667.23;255085;1104;115903;-66
2021/08/06 14:02:03;;;;;;;0.95;0.95;;;;;;;15.01;78.77;98671.58;254314;1104;116916;-66
2021/08/06 14:07:08;;;;;;;1.90;1.20;;;;;;;15.02;78.26;98677.74;255585;1104;115912;-66
2021/08/06 14:12:13;;;;;;;1.35;1.23;;;;;;;15.03;78.57;98677.45;255518;1104;116086;-66
2021/08/06 14:17:17;;;;;;;1.28;0.63;;;;;;;15.05;78.63;98690.59;254179;1104;115669;-66
2021/08/06 14:22:22;;;;;;;1.23;1.18;;;;;;;15.02;78.44;98680.43;255963;1104;115710;-66
2021/08/06 14:27:31;;;;;;;1.80;1.43;;;;;;;15.03;78.86;98682.83;253873;1104;114892;-66
2021/08/06 14:32:35;;;;;;;2.10;1.90;;;;;;;15.09;78.67;98691.61;253911;1104;115403;-65
2021/08/06 14:37:40;;;;;;;3.10;1.08;;;;;;;15.08;78.51;98684.64;256201;1104;114430;-65
2021/08/06 14:42:44;;;;;;;1.63;1.30;;;;;;;15.09;78.83;98697.78;255790;1100;115077;-65
2021/08/06 14:47:49;;;;;;;1.70;1.03;;;;;;;15.20;78.69;98697.65;255542;1104;115066;-65
2021/08/06 14:52:56;;;;;;;2.33;1.28;;;;;;;15.27;78.33;98700.78;256872;1104;116014;-66
2021/08/06 14:58:01;;;;;;;1.90;1.17;;;;;;;15.35;78.49;98700.90;257256;1104;115197;-65
2021/08/06 15:03:05;;;;;;;1.23;1.20;;;;;;;15.45;78.11;98702.64;255633;1104;115114;-66
2021/08/06 15:08:09;;;;;;;6.43;2.23;;;;;;;15.60;78.54;98723.13;257149;1104;115176;-65
2021/08/06 15:13:12;;;;;;;1.57;1.47;;;;;;;15.62;77.93;98731.69;257156;1104;116176;-65
2021/08/06 15:18:23;;;;;;;2.15;1.65;;;;;;;15.61;78.13;98733.58;255177;1104;115721;-65
2021/08/06 15:23:27;;;;;;;2.10;1.20;;;;;;;15.56;77.85;98732.84;257180;1104;116359;-66
2021/08/06 15:28:29;;;;;;;1.30;1.03;;;;;;;15.45;77.49;98738.36;257399;1104;114537;-65
2021/08/06 15:33:33;;;;;;;1.10;1.08;;;;;;;15.47;77.58;98735.38;254600;1104;115361;-66
2021/08/06 15:38:39;;;;;;;2.73;1.23;;;;;;;15.51;78.08;98747.14;256280;1104;115546;-65
2021/08/06 15:43:43;;;;;;;;;;;;;;;15.47;77.63;98752.30;257198;1104;115056;-65
2021/08/06 15:48:50;;;;;;;1.70;1.60;;;;;;;15.51;77.89;98752.52;256955;1104;102971;-65
2021/08/06 15:53:55;;;;;;;2.90;1.40;;;;;;;15.52;77.74;98756.80;255242;1104;115277;-66
2021/08/06 15:59:02;;;;;;;2.18;1.20;;;;;;;15.45;77.63;98759.84;254418;1104;114831;-65
2021/08/06 16:04:05;;;;;;;2.03;1.15;;;;;;;15.46;77.12;98755.27;254941;1104;115384;-65
2021/08/06 16:09:08;;;;;;;2.33;1.05;;;;;;;15.45;77.19;98749.09;255759;1104;114423;-65
2021/08/06 16:14:12;;;;;;;1.18;0.80;;;;;;;15.47;77.37;98749.61;253676;1104;114913;-65
2021/08/06 16:19:15;;;;;;;1.35;1.10;;;;;;;15.48;77.17;98753.09;253835;1104;114683;-65
2021/08/06 16:24:17;;;;;;;3.20;1.30;;;;;;;15.40;77.45;98751.05;254081;1104;114410;-65
2021/08/06 16:29:20;;;;;;;1.78;1.53;;;;;;;15.35;77.43;98756.48;256567;1104;115637;-65
2021/08/06 16:34:23;;;;;;;2.93;1.73;;;;;;;15.35;77.63;98757.28;255941;1104;114917;-64
2021/08/06 16:39:26;;;;;;;5.50;1.37;;;;;;;15.34;77.37;98760.26;257087;1104;115296;-65
2021/08/06 16:44:29;;;;;;;1.00;1.00;;;;;;;15.34;76.84;98761.06;254180;1104;115736;-67
2021/08/06 16:49:32;;;;;;;1.80;0.90;;;;;;;15.26;77.05;98764.41;255777;1099;115351;-65
2021/08/06 16:54:35;;;;;;;8.98;2.10;;;;;;;15.18;77.29;98759.67;254959;1099;114479;-66
2021/08/06 16:59:38;;;;;;;1.53;1.35;;;;;;;15.19;77.45;98760.48;257063;1104;115049;-65
2021/08/06 17:04:40;;;;;;;1.87;1.77;;;;;;;15.19;77.71;98763.16;257129;1103;116000;-65
2021/08/06 17:09:43;;;;;;;1.50;1.33;;;;;;;15.21;76.83;98769.05;257196;1103;116224;-66
2021/08/06 17:14:46;;;;;;;2.40;1.63;;;;;;;15.16;77.30;98773.39;257263;1104;114829;-65
2021/08/06 17:19:49;;;;;;;4.15;2.00;;;;;;;15.11;77.01;98765.39;257291;1104;114796;-64
2021/08/06 17:24:53;;;;;;;3.95;1.83;;;;;;;15.11;77.33;98765.39;257253;1104;115176;-67
2021/08/06 17:29:56;;;;;;;1.60;1.50;;;;;;;15.13;76.92;98768.59;257184;1104;117968;-67
2021/08/06 17:34:59;;;;;;;1.40;1.30;;;;;;;15.18;77.35;98762.36;256918;1104;115709;-68
2021/08/06 17:40:07;;;;;;;1.95;1.75;;;;;;;15.13;77.27;98763.22;253896;1104;116064;-65
2021/08/06 17:45:11;;;;;;;2.43;1.38;;;;;;;15.04;77.13;98766.82;255123;1104;116907;-67
2021/08/06 17:50:16;;;;;;;4.50;1.60;;;;;;;14.97;77.25;98769.88;253710;1104;116001;-67
2021/08/06 17:55:20;;;;;;;2.43;1.47;;;;;;;14.94;77.34;98769.65;257149;1104;116606;-64
2021/08/06 18:00:24;;;;;;;3.00;1.70;;;;;;;14.93;77.42;98763.48;255738;1104;116054;-63
2021/08/06 18:05:27;;;;;;;1.55;1.45;;;;;;;14.92;77.75;98767.25;254262;1104;116234;-62
2021/08/06 18:10:31;;;;;;;1.98;1.63;;;;;;;14.87;77.59;98756.57;255654;1104;116005;-65
2021/08/06 18:15:35;;;;;;;2.33;2.10;;;;;;;14.74;77.80;98760.73;255182;1104;116323;-64
2021/08/06 18:20:38;;;;;;;1.18;1.10;;;;;;;14.72;78.14;98764.78;254482;1104;117069;-64
2021/08/06 18:25:41;;;;;;;4.68;1.58;;;;;;;14.66;78.00;98764.06;255646;1104;115765;-63
2021/08/06 18:30:45;;;;;;;4.95;1.75;;;;;;;14.66;78.00;98763.26;254003;1104;114533;-65
2021/08/06 18:35:49;;;;;;;1.73;1.63;;;;;;;14.69;77.74;98771.52;255168;1099;115605;-65
2021/08/06 18:40:53;;;;;;;4.93;3.03;;;;;;;14.70;78.14;98773.11;257063;1104;114581;-65
2021/08/06 18:45:56;;;;;;;2.50;2.30;;;;;;;14.65;77.92;98769.70;254686;1104;115198;-64
2021/08/06 18:51:00;;;;;;;1.55;1.45;;;;;;;14.61;77.86;98772.16;256983;1104;115786;-64
2021/08/06 18:56:04;;;;;;;1.50;1.40;;;;;;;14.57;77.65;98775.69;255399;1099;115856;-64
2021/08/06 19:01:07;;;;;;;3.53;1.20;;;;;;;14.53;77.87;98783.49;256009;1104;114819;-64
2021/08/06 19:06:11;;;;;;;1.78;1.10;;;;;;;14.52;77.14;98797.19;255316;1104;114986;-63
2021/08/06 19:11:17;;;;;;;2.03;1.48;;;;;;;14.51;77.16;98808.99;256995;1104;115418;-64
2021/08/06 19:16:21;;;;;;;1.55;1.45;;;;;;;14.54;77.60;98808.42;257259;1104;114804;-64
2021/08/06 19:21:26;;;;;;;1.63;1.53;;;;;;;14.52;77.61;98821.31;257172;1104;115161;-65
2021/08/06 19:26:29;;;;;;;4.95;2.15;;;;;;;14.56;77.35;98814.31;257146;1104;115122;-64
2021/08/06 19:31:33;;;;;;;1.80;1.70;;;;;;;14.56;77.74;98814.31;257173;1104;114974;-65
2021/08/06 19:36:42;;;;;;;2.73;2.05;;;;;;;14.56;78.05;98814.31;257161;1104;116008;-65
2021/08/06 19:41:46;;;;;;;2.15;1.80;;;;;;;14.52;77.72;98810.59;257140;1104;116062;-65
2021/08/06 19:46:50;;;;;;;6.05;2.88;;;;;;;14.53;78.33;98807.63;257168;1104;114758;-67
2021/08/06 19:52:09;;;;;;;6.48;3.35;;;;;;;14.55;77.83;98812.71;257366;1104;114993;-68
2021/08/06 19:57:12;;;;;;;4.40;3.40;;;;;;;14.59;77.67;98811.06;257091;1104;115402;-67
2021/08/06 20:02:15;;;;;;;9.20;2.67;;;;;;;14.62;77.64;98821.23;254515;1104;114499;-66
2021/08/06 20:07:19;;;;;;;3.53;2.05;;;;;;;14.59;77.58;98822.59;256046;1104;114987;-66
2021/08/06 20:12:22;;;;;;;5.75;2.18;;;;;;;14.56;78.24;98817.00;254582;1104;115001;-68
2021/08/06 20:17:26;;;;;;;3.60;1.70;;;;;;;14.54;78.04;98821.84;255117;1100;114925;-68
2021/08/06 20:22:30;;;;;;;3.95;2.03;;;;;;;14.48;77.56;98827.24;256448;1104;115481;-67
2021/08/06 20:27:32;;;;;;;6.98;2.53;;;;;;;14.51;77.95;98827.77;254815;1104;115173;-66
2021/08/06 20:32:35;;;;;;;3.73;2.70;;;;;;;14.50;77.71;98816.23;255190;1104;114674;-66
2021/08/06 20:37:39;;;;;;;2.15;2.00;;;;;;;14.46;77.03;98824.05;253688;1104;115412;-67
2021/08/06 20:42:42;;;;;;;4.83;2.27;;;;;;;14.50;77.94;98832.33;254603;1104;114901;-66
2021/08/06 20:47:45;;;;;;;2.70;1.75;;;;;;;14.54;77.65;98840.61;256562;1100;115136;-67
2021/08/06 20:52:49;;;;;;;2.88;1.88;;;;;;;14.54;77.55;98843.30;254140;1104;115317;-65
2021/08/06 20:57:52;;;;;;;3.03;2.35;;;;;;;14.53;77.95;98860.47;254711;1104;115861;-66
2021/08/06 21:02:54;;;;;;;5.43;2.40;;;;;;;14.47;77.57;98852.45;254507;1104;114692;-66
2021/08/06 21:08:00;;;;;;;7.45;2.73;;;;;;;14.43;77.37;98854.09;254891;1104;115069;-66
2021/08/06 21:13:04;;;;;;;2.25;1.98;;;;;;;14.41;77.60;98863.50;254557;1104;115727;-67
2021/08/06 21:18:08;;;;;;;2.87;1.90;;;;;;;14.35;77.95;98865.41;254761;1104;115048;-66
2021/08/06 21:23:11;;;;;;;3.23;1.88;;;;;;;14.29;77.61;98871.09;255410;1104;114908;-66
2021/08/06 21:28:17;;;;;;;2.37;1.60;;;;;;;14.28;78.01;98872.17;257052;1104;115179;-66
2021/08/06 21:33:21;;;;;;;2.85;2.20;;;;;;;14.24;77.39;98874.61;257178;1104;115549;-65
2021/08/06 21:38:25;;;;;;;2.40;1.73;;;;;;;14.17;77.64;98868.75;255076;1104;115289;-66
2021/08/06 21:43:27;;;;;;;5.93;2.25;;;;;;;14.11;77.27;98881.38;256006;1104;115046;-67
2021/08/06 21:48:30;;;;;;;11.93;2.85;;;;;;;14.06;77.32;98875.28;257277;1104;115365;-65
2021/08/06 21:53:33;;;;;;;4.03;2.23;;;;;;;13.98;77.27;98867.82;257201;1104;115177;-65
2021/08/06 21:58:35;;;;;;;2.17;1.87;;;;;;;13.95;77.44;98876.41;257238;1104;115614;-66
2021/08/06 22:03:37;;;;;;;2.50;2.30;;;;;;;13.89;77.28;98869.48;257076;1104;115384;-65
2021/08/06 22:08:41;;;;;;;4.75;1.90;;;;;;;13.80;77.13;98886.13;257119;1104;115727;-67
2021/08/06 22:13:43;;;;;;;8.70;2.55;;;;;;;13.78;77.18;98885.59;255780;1104;115886;-65
2021/08/06 22:18:46;;;;;;;2.03;1.68;;;;;;;13.79;77.16;98883.72;257270;1104;114696;-65
2021/08/06 22:23:48;;;;;;;2.85;2.33;;;;;;;13.80;77.62;98886.13;254368;1104;115182;-65
2021/08/06 22:28:51;;;;;;;2.97;1.90;;;;;;;13.82;77.25;98888.53;257163;1104;115432;-66
2021/08/06 22:33:54;;;;;;;3.70;2.18;;;;;;;13.76;77.64;98885.06;254520;1100;114881;-66
2021/08/06 22:38:57;;;;;;;2.23;1.90;;;;;;;13.70;77.81;98883.52;255900;1104;115737;-65
2021/08/06 22:43:59;;;;;;;2.93;2.58;;;;;;;13.59;77.48;98875.80;253914;1104;115246;-65
2021/08/06 22:49:03;;;;;;;2.57;2.37;;;;;;;13.52;77.61;98876.09;256930;1104;115753;-67
2021/08/06 22:54:06;;;;;;;2.40;2.20;;;;;;;13.52;77.69;98869.94;254703;1104;115290;-66
2021/08/06 22:59:10;;;;;;;2.23;1.93;;;;;;;13.46;77.76;98869.15;253894;1104;115368;-66
2021/08/06 23:04:14;;;;;;;7.88;2.35;;;;;;;13.40;78.08;98872.95;255125;1104;115637;-65
2021/08/06 23:09:18;;;;;;;3.08;2.48;;;;;;;13.38;78.22;98877.77;255935;1104;195240;-67
2021/08/06 23:14:21;;;;;;;7.20;2.75;;;;;;;13.31;77.77;98882.61;254515;1104;115145;-67
2021/08/06 23:19:24;;;;;;;2.45;2.10;;;;;;;13.19;77.40;98880.22;254295;1104;114381;-68